Strona główna
METAR-TAF:

METAR-TAF

Lotnisko :

Vlieland, Holandia

Szerokość geograficzna: 53-15N, Długość geograficzna: 004-55E, wysokość: 11 m

Aktualna obserwacja pogody

Raport powstał 11 minut temu, godzina 04:25 UTC
Wiatr 15 kt od południowo-południowy wschód
Temperatura 10°C
Wilgotność 76%
Ciśnienie 1014 hPa
Widzialność 10 km lub więcej

METAR: EHVL 060425Z AUTO 16015KT 9999 NCD 10/06 Q1014 BLU

czas: 06:36 (04:36 UTC)


TAF: brakujący

Obserwacja i prognoza pogody dla ponad 4000 lotnisk (raport METAR i TAF).

Dostępne stacje oznaczono żółtymi i czerwonymi punktami na mapie.

Najedź kursorem aby zobaczyć nazwę stacji.

Kliknij aby zobaczyć obserwacje i prognozy pogody.

Aby zmienić mapę: kliknij na zielony przycisk z czarnym krzyżykiem, aby powiększyć; na zielony przycisk z myślnikiem, aby pomniejszyć; na zielone strzałki, aby przejść do map sąsiednich.


METAR-TAF: